sensor_id;sensor_type;location;lat;lon;timestamp;P1;durP1;ratioP1;P2;durP2;ratioP2
70707;SDS011;58277;47.316;18.908;2023-01-19T00:00:03;17.55;;;7.60;;
70707;SDS011;58277;47.316;18.908;2023-01-19T00:02:27;14.57;;;6.95;;
70707;SDS011;58277;47.316;18.908;2023-01-19T00:04:50;16.05;;;7.75;;
70707;SDS011;58277;47.316;18.908;2023-01-19T00:07:13;16.30;;;7.57;;
70707;SDS011;58277;47.316;18.908;2023-01-19T00:09:36;15.53;;;6.43;;
70707;SDS011;58277;47.316;18.908;2023-01-19T00:11:59;14.38;;;6.30;;
70707;SDS011;58277;47.316;18.908;2023-01-19T00:14:22;11.48;;;5.63;;
70707;SDS011;58277;47.316;18.908;2023-01-19T00:16:44;12.25;;;5.60;;
70707;SDS011;58277;47.316;18.908;2023-01-19T00:19:07;13.32;;;6.25;;
70707;SDS011;58277;47.316;18.908;2023-01-19T00:21:30;15.10;;;5.67;;
70707;SDS011;58277;47.316;18.908;2023-01-19T00:23:52;14.80;;;6.88;;
70707;SDS011;58277;47.316;18.908;2023-01-19T00:26:15;15.60;;;6.53;;
70707;SDS011;58277;47.316;18.908;2023-01-19T00:28:38;14.05;;;6.80;;
70707;SDS011;58277;47.316;18.908;2023-01-19T00:31:01;13.52;;;6.47;;
70707;SDS011;58277;47.316;18.908;2023-01-19T00:33:23;12.93;;;6.40;;
70707;SDS011;58277;47.316;18.908;2023-01-19T00:35:49;16.20;;;7.25;;
70707;SDS011;58277;47.316;18.908;2023-01-19T00:38:14;14.55;;;7.40;;
70707;SDS011;58277;47.316;18.908;2023-01-19T00:40:36;15.27;;;6.85;;
70707;SDS011;58277;47.316;18.908;2023-01-19T00:42:59;18.83;;;9.18;;
70707;SDS011;58277;47.316;18.908;2023-01-19T00:45:23;18.60;;;8.07;;
70707;SDS011;58277;47.316;18.908;2023-01-19T00:47:46;17.25;;;7.13;;
70707;SDS011;58277;47.316;18.908;2023-01-19T00:50:11;17.55;;;7.78;;
70707;SDS011;58277;47.316;18.908;2023-01-19T00:52:34;18.85;;;8.60;;
70707;SDS011;58277;47.316;18.908;2023-01-19T00:54:57;20.10;;;9.38;;
70707;SDS011;58277;47.316;18.908;2023-01-19T00:57:20;19.30;;;8.33;;
70707;SDS011;58277;47.316;18.908;2023-01-19T00:59:42;19.98;;;8.75;;
70707;SDS011;58277;47.316;18.908;2023-01-19T01:02:05;19.63;;;8.52;;
70707;SDS011;58277;47.316;18.908;2023-01-19T01:04:28;21.17;;;9.75;;
70707;SDS011;58277;47.316;18.908;2023-01-19T01:06:51;16.80;;;7.07;;
70707;SDS011;58277;47.316;18.908;2023-01-19T01:09:14;21.60;;;8.53;;
70707;SDS011;58277;47.316;18.908;2023-01-19T01:11:37;21.15;;;8.48;;
70707;SDS011;58277;47.316;18.908;2023-01-19T01:14:01;17.98;;;8.13;;
70707;SDS011;58277;47.316;18.908;2023-01-19T01:16:24;16.55;;;7.85;;
70707;SDS011;58277;47.316;18.908;2023-01-19T01:18:47;17.52;;;7.32;;
70707;SDS011;58277;47.316;18.908;2023-01-19T01:21:10;16.63;;;7.30;;
70707;SDS011;58277;47.316;18.908;2023-01-19T01:23:34;18.17;;;8.00;;
70707;SDS011;58277;47.316;18.908;2023-01-19T01:25:56;13.00;;;5.93;;
70707;SDS011;58277;47.316;18.908;2023-01-19T01:28:19;15.73;;;6.50;;
70707;SDS011;58277;47.316;18.908;2023-01-19T01:30:42;15.88;;;6.13;;
70707;SDS011;58277;47.316;18.908;2023-01-19T01:33:07;15.43;;;6.63;;
70707;SDS011;58277;47.316;18.908;2023-01-19T01:35:30;13.93;;;6.13;;
70707;SDS011;58277;47.316;18.908;2023-01-19T01:37:56;11.90;;;5.53;;
70707;SDS011;58277;47.316;18.908;2023-01-19T01:40:20;9.82;;;4.40;;
70707;SDS011;58277;47.316;18.908;2023-01-19T01:42:43;8.55;;;4.10;;
70707;SDS011;58277;47.316;18.908;2023-01-19T01:45:16;11.00;;;4.70;;
70707;SDS011;58277;47.316;18.908;2023-01-19T01:47:46;12.63;;;5.07;;
70707;SDS011;58277;47.316;18.908;2023-01-19T01:50:15;14.65;;;5.70;;
70707;SDS011;58277;47.316;18.908;2023-01-19T01:52:43;11.68;;;5.30;;
70707;SDS011;58277;47.316;18.908;2023-01-19T01:55:28;11.02;;;4.55;;
70707;SDS011;58277;47.316;18.908;2023-01-19T01:57:55;9.33;;;4.50;;
70707;SDS011;58277;47.316;18.908;2023-01-19T02:00:25;8.85;;;4.32;;
70707;SDS011;58277;47.316;18.908;2023-01-19T02:02:49;6.95;;;3.10;;
70707;SDS011;58277;47.316;18.908;2023-01-19T02:05:20;6.20;;;2.70;;
70707;SDS011;58277;47.316;18.908;2023-01-19T02:08:09;6.13;;;2.90;;
70707;SDS011;58277;47.316;18.908;2023-01-19T02:10:55;4.83;;;2.20;;
70707;SDS011;58277;47.316;18.908;2023-01-19T02:13:38;3.72;;;1.90;;
70707;SDS011;58277;47.316;18.908;2023-01-19T02:16:05;3.13;;;1.15;;
70707;SDS011;58277;47.316;18.908;2023-01-19T02:18:30;3.13;;;1.42;;
70707;SDS011;58277;47.316;18.908;2023-01-19T02:23:46;2.30;;;0.97;;
70707;SDS011;58277;47.316;18.908;2023-01-19T02:26:21;2.72;;;0.90;;
70707;SDS011;58277;47.316;18.908;2023-01-19T02:28:50;1.73;;;0.82;;
70707;SDS011;58277;47.316;18.908;2023-01-19T02:31:16;1.55;;;0.80;;
70707;SDS011;58277;47.316;18.908;2023-01-19T02:33:40;2.00;;;0.90;;
70707;SDS011;58277;47.316;18.908;2023-01-19T02:36:03;3.83;;;0.60;;
70707;SDS011;58277;47.316;18.908;2023-01-19T02:38:29;2.15;;;0.73;;
70707;SDS011;58277;47.316;18.908;2023-01-19T02:40:56;1.42;;;0.60;;
70707;SDS011;58277;47.316;18.908;2023-01-19T02:43:22;2.42;;;0.80;;
70707;SDS011;58277;47.316;18.908;2023-01-19T02:45:46;1.88;;;0.80;;
70707;SDS011;58277;47.316;18.908;2023-01-19T02:48:09;1.47;;;0.70;;
70707;SDS011;58277;47.316;18.908;2023-01-19T02:50:42;2.88;;;0.70;;
70707;SDS011;58277;47.316;18.908;2023-01-19T02:55:47;2.45;;;0.70;;
70707;SDS011;58277;47.316;18.908;2023-01-19T02:58:36;1.70;;;0.77;;
70707;SDS011;58277;47.316;18.908;2023-01-19T03:01:20;2.03;;;0.63;;
70707;SDS011;58277;47.316;18.908;2023-01-19T03:03:55;2.05;;;1.10;;
70707;SDS011;58277;47.316;18.908;2023-01-19T03:06:45;2.00;;;0.77;;
70707;SDS011;58277;47.316;18.908;2023-01-19T03:09:32;2.10;;;1.00;;
70707;SDS011;58277;47.316;18.908;2023-01-19T03:12:13;3.30;;;0.90;;
70707;SDS011;58277;47.316;18.908;2023-01-19T03:14:54;2.50;;;0.90;;
70707;SDS011;58277;47.316;18.908;2023-01-19T03:17:22;2.08;;;0.80;;
70707;SDS011;58277;47.316;18.908;2023-01-19T03:19:47;1.27;;;0.70;;
70707;SDS011;58277;47.316;18.908;2023-01-19T03:22:13;1.23;;;0.60;;
70707;SDS011;58277;47.316;18.908;2023-01-19T03:24:45;1.70;;;0.70;;
70707;SDS011;58277;47.316;18.908;2023-01-19T03:27:10;1.70;;;0.50;;
70707;SDS011;58277;47.316;18.908;2023-01-19T03:29:39;1.20;;;0.50;;
70707;SDS011;58277;47.316;18.908;2023-01-19T03:32:08;1.30;;;0.65;;
70707;SDS011;58277;47.316;18.908;2023-01-19T03:34:35;1.33;;;0.55;;
70707;SDS011;58277;47.316;18.908;2023-01-19T03:37:01;2.72;;;0.70;;
70707;SDS011;58277;47.316;18.908;2023-01-19T03:39:26;1.60;;;0.60;;
70707;SDS011;58277;47.316;18.908;2023-01-19T03:41:54;1.40;;;0.60;;
70707;SDS011;58277;47.316;18.908;2023-01-19T03:44:20;1.17;;;0.60;;
70707;SDS011;58277;47.316;18.908;2023-01-19T03:46:45;1.13;;;0.45;;
70707;SDS011;58277;47.316;18.908;2023-01-19T03:49:09;1.05;;;0.57;;
70707;SDS011;58277;47.316;18.908;2023-01-19T03:51:38;1.80;;;0.50;;
70707;SDS011;58277;47.316;18.908;2023-01-19T03:54:01;1.20;;;0.50;;
70707;SDS011;58277;47.316;18.908;2023-01-19T03:56:26;1.10;;;0.60;;
70707;SDS011;58277;47.316;18.908;2023-01-19T03:58:49;1.55;;;0.60;;
70707;SDS011;58277;47.316;18.908;2023-01-19T04:01:12;1.42;;;0.50;;
70707;SDS011;58277;47.316;18.908;2023-01-19T04:03:36;1.10;;;0.43;;
70707;SDS011;58277;47.316;18.908;2023-01-19T04:06:00;2.03;;;0.63;;
70707;SDS011;58277;47.316;18.908;2023-01-19T04:08:22;1.92;;;0.80;;
70707;SDS011;58277;47.316;18.908;2023-01-19T04:10:45;2.58;;;1.25;;
70707;SDS011;58277;47.316;18.908;2023-01-19T04:13:08;4.28;;;1.80;;
70707;SDS011;58277;47.316;18.908;2023-01-19T04:15:30;5.20;;;2.30;;
70707;SDS011;58277;47.316;18.908;2023-01-19T04:17:55;4.57;;;2.30;;
70707;SDS011;58277;47.316;18.908;2023-01-19T04:20:19;4.40;;;2.33;;
70707;SDS011;58277;47.316;18.908;2023-01-19T04:22:42;5.88;;;2.80;;
70707;SDS011;58277;47.316;18.908;2023-01-19T04:25:06;6.47;;;2.92;;
70707;SDS011;58277;47.316;18.908;2023-01-19T04:27:29;4.70;;;2.40;;
70707;SDS011;58277;47.316;18.908;2023-01-19T04:29:52;5.80;;;2.72;;
70707;SDS011;58277;47.316;18.908;2023-01-19T04:32:14;5.95;;;2.83;;
70707;SDS011;58277;47.316;18.908;2023-01-19T04:34:37;6.65;;;3.17;;
70707;SDS011;58277;47.316;18.908;2023-01-19T04:37:00;5.20;;;2.60;;
70707;SDS011;58277;47.316;18.908;2023-01-19T04:39:22;4.70;;;2.40;;
70707;SDS011;58277;47.316;18.908;2023-01-19T04:41:45;5.13;;;2.30;;
70707;SDS011;58277;47.316;18.908;2023-01-19T04:44:08;5.20;;;2.45;;
70707;SDS011;58277;47.316;18.908;2023-01-19T04:46:30;4.50;;;2.20;;
70707;SDS011;58277;47.316;18.908;2023-01-19T04:48:53;3.78;;;1.90;;
70707;SDS011;58277;47.316;18.908;2023-01-19T04:51:16;3.30;;;1.60;;
70707;SDS011;58277;47.316;18.908;2023-01-19T04:53:38;2.70;;;1.40;;
70707;SDS011;58277;47.316;18.908;2023-01-19T04:56:01;2.83;;;1.27;;
70707;SDS011;58277;47.316;18.908;2023-01-19T04:58:24;2.13;;;1.17;;
70707;SDS011;58277;47.316;18.908;2023-01-19T05:00:47;2.80;;;1.50;;
70707;SDS011;58277;47.316;18.908;2023-01-19T05:03:09;4.10;;;1.80;;
70707;SDS011;58277;47.316;18.908;2023-01-19T05:05:32;2.97;;;1.58;;
70707;SDS011;58277;47.316;18.908;2023-01-19T05:07:56;3.75;;;1.90;;
70707;SDS011;58277;47.316;18.908;2023-01-19T05:10:18;5.43;;;2.42;;
70707;SDS011;58277;47.316;18.908;2023-01-19T05:12:41;3.45;;;1.95;;
70707;SDS011;58277;47.316;18.908;2023-01-19T05:15:04;4.20;;;2.00;;
70707;SDS011;58277;47.316;18.908;2023-01-19T05:17:29;4.40;;;2.08;;
70707;SDS011;58277;47.316;18.908;2023-01-19T05:19:52;4.68;;;2.15;;
70707;SDS011;58277;47.316;18.908;2023-01-19T05:22:14;4.28;;;2.30;;
70707;SDS011;58277;47.316;18.908;2023-01-19T05:24:37;4.35;;;1.98;;
70707;SDS011;58277;47.316;18.908;2023-01-19T05:27:00;4.03;;;2.00;;
70707;SDS011;58277;47.316;18.908;2023-01-19T05:29:23;4.43;;;2.33;;
70707;SDS011;58277;47.316;18.908;2023-01-19T05:31:46;3.72;;;1.90;;
70707;SDS011;58277;47.316;18.908;2023-01-19T05:34:09;3.50;;;1.90;;
70707;SDS011;58277;47.316;18.908;2023-01-19T05:36:33;3.00;;;1.60;;
70707;SDS011;58277;47.316;18.908;2023-01-19T05:38:56;2.83;;;1.40;;
70707;SDS011;58277;47.316;18.908;2023-01-19T05:41:19;2.15;;;1.13;;
70707;SDS011;58277;47.316;18.908;2023-01-19T05:43:41;3.40;;;1.42;;
70707;SDS011;58277;47.316;18.908;2023-01-19T05:46:04;2.80;;;1.40;;
70707;SDS011;58277;47.316;18.908;2023-01-19T05:48:27;3.05;;;1.58;;
70707;SDS011;58277;47.316;18.908;2023-01-19T05:50:50;3.97;;;1.90;;
70707;SDS011;58277;47.316;18.908;2023-01-19T05:53:12;4.78;;;1.90;;
70707;SDS011;58277;47.316;18.908;2023-01-19T05:55:35;4.95;;;2.17;;
70707;SDS011;58277;47.316;18.908;2023-01-19T05:57:58;5.03;;;2.15;;
70707;SDS011;58277;47.316;18.908;2023-01-19T06:00:20;5.45;;;2.47;;
70707;SDS011;58277;47.316;18.908;2023-01-19T06:02:43;6.40;;;2.77;;
70707;SDS011;58277;47.316;18.908;2023-01-19T06:05:07;5.15;;;2.80;;
70707;SDS011;58277;47.316;18.908;2023-01-19T06:07:30;6.95;;;2.95;;
70707;SDS011;58277;47.316;18.908;2023-01-19T06:09:53;6.80;;;3.50;;
70707;SDS011;58277;47.316;18.908;2023-01-19T06:12:16;6.68;;;3.22;;
70707;SDS011;58277;47.316;18.908;2023-01-19T06:14:38;6.03;;;2.90;;
70707;SDS011;58277;47.316;18.908;2023-01-19T06:17:02;8.02;;;3.63;;
70707;SDS011;58277;47.316;18.908;2023-01-19T06:19:27;7.13;;;3.47;;
70707;SDS011;58277;47.316;18.908;2023-01-19T06:21:50;7.72;;;3.33;;
70707;SDS011;58277;47.316;18.908;2023-01-19T06:24:14;6.70;;;3.15;;
70707;SDS011;58277;47.316;18.908;2023-01-19T06:26:37;8.33;;;3.30;;
70707;SDS011;58277;47.316;18.908;2023-01-19T06:29:00;7.63;;;3.35;;
70707;SDS011;58277;47.316;18.908;2023-01-19T06:31:23;8.18;;;3.65;;
70707;SDS011;58277;47.316;18.908;2023-01-19T06:33:45;7.00;;;3.28;;
70707;SDS011;58277;47.316;18.908;2023-01-19T06:36:09;8.45;;;3.45;;
70707;SDS011;58277;47.316;18.908;2023-01-19T06:38:31;8.30;;;3.90;;
70707;SDS011;58277;47.316;18.908;2023-01-19T06:40:56;9.18;;;3.80;;
70707;SDS011;58277;47.316;18.908;2023-01-19T06:43:26;10.93;;;4.43;;
70707;SDS011;58277;47.316;18.908;2023-01-19T06:45:50;8.85;;;3.83;;
70707;SDS011;58277;47.316;18.908;2023-01-19T06:48:14;10.23;;;4.53;;
70707;SDS011;58277;47.316;18.908;2023-01-19T06:50:37;12.13;;;4.73;;
70707;SDS011;58277;47.316;18.908;2023-01-19T06:53:00;12.15;;;5.05;;
70707;SDS011;58277;47.316;18.908;2023-01-19T06:55:23;14.32;;;5.63;;
70707;SDS011;58277;47.316;18.908;2023-01-19T06:57:56;10.95;;;4.70;;
70707;SDS011;58277;47.316;18.908;2023-01-19T07:00:20;15.15;;;5.93;;
70707;SDS011;58277;47.316;18.908;2023-01-19T07:02:43;12.47;;;5.40;;
70707;SDS011;58277;47.316;18.908;2023-01-19T07:05:06;14.18;;;5.95;;
70707;SDS011;58277;47.316;18.908;2023-01-19T07:07:30;13.48;;;5.70;;
70707;SDS011;58277;47.316;18.908;2023-01-19T07:09:53;13.48;;;5.45;;
70707;SDS011;58277;47.316;18.908;2023-01-19T07:12:16;14.45;;;5.43;;
70707;SDS011;58277;47.316;18.908;2023-01-19T07:14:39;15.83;;;6.47;;
70707;SDS011;58277;47.316;18.908;2023-01-19T07:17:02;13.68;;;5.82;;
70707;SDS011;58277;47.316;18.908;2023-01-19T07:19:24;15.85;;;6.50;;
70707;SDS011;58277;47.316;18.908;2023-01-19T07:21:48;13.95;;;5.85;;
70707;SDS011;58277;47.316;18.908;2023-01-19T07:24:11;14.15;;;6.25;;
70707;SDS011;58277;47.316;18.908;2023-01-19T07:26:36;15.17;;;6.40;;
70707;SDS011;58277;47.316;18.908;2023-01-19T07:28:59;15.02;;;6.65;;
70707;SDS011;58277;47.316;18.908;2023-01-19T07:31:22;15.05;;;6.63;;
70707;SDS011;58277;47.316;18.908;2023-01-19T07:33:46;14.25;;;6.35;;
70707;SDS011;58277;47.316;18.908;2023-01-19T07:36:08;15.98;;;6.50;;
70707;SDS011;58277;47.316;18.908;2023-01-19T07:38:31;14.93;;;6.57;;
70707;SDS011;58277;47.316;18.908;2023-01-19T07:41:01;16.45;;;6.82;;
70707;SDS011;58277;47.316;18.908;2023-01-19T07:43:24;18.35;;;7.55;;
70707;SDS011;58277;47.316;18.908;2023-01-19T07:45:47;19.17;;;7.85;;
70707;SDS011;58277;47.316;18.908;2023-01-19T07:48:10;16.25;;;7.15;;
70707;SDS011;58277;47.316;18.908;2023-01-19T07:50:33;18.30;;;6.77;;
70707;SDS011;58277;47.316;18.908;2023-01-19T07:52:56;18.13;;;7.60;;
70707;SDS011;58277;47.316;18.908;2023-01-19T07:55:19;18.90;;;7.68;;
70707;SDS011;58277;47.316;18.908;2023-01-19T07:57:42;22.83;;;9.13;;
70707;SDS011;58277;47.316;18.908;2023-01-19T08:00:05;19.77;;;8.65;;
70707;SDS011;58277;47.316;18.908;2023-01-19T08:02:36;22.43;;;8.93;;
70707;SDS011;58277;47.316;18.908;2023-01-19T08:04:59;22.80;;;9.05;;
70707;SDS011;58277;47.316;18.908;2023-01-19T08:07:25;22.98;;;8.80;;
70707;SDS011;58277;47.316;18.908;2023-01-19T08:09:48;22.58;;;9.45;;
70707;SDS011;58277;47.316;18.908;2023-01-19T08:12:10;19.38;;;8.35;;
70707;SDS011;58277;47.316;18.908;2023-01-19T08:14:35;24.70;;;9.57;;
70707;SDS011;58277;47.316;18.908;2023-01-19T08:17:00;24.45;;;9.70;;
70707;SDS011;58277;47.316;18.908;2023-01-19T08:19:24;25.67;;;9.93;;
70707;SDS011;58277;47.316;18.908;2023-01-19T08:21:48;25.55;;;10.02;;
70707;SDS011;58277;47.316;18.908;2023-01-19T08:24:16;24.85;;;9.85;;
70707;SDS011;58277;47.316;18.908;2023-01-19T08:26:40;25.10;;;10.00;;
70707;SDS011;58277;47.316;18.908;2023-01-19T08:29:03;25.20;;;9.93;;
70707;SDS011;58277;47.316;18.908;2023-01-19T08:31:27;26.67;;;10.88;;
70707;SDS011;58277;47.316;18.908;2023-01-19T08:33:50;23.67;;;9.70;;
70707;SDS011;58277;47.316;18.908;2023-01-19T08:36:13;26.40;;;11.00;;
70707;SDS011;58277;47.316;18.908;2023-01-19T08:38:36;27.10;;;9.97;;
70707;SDS011;58277;47.316;18.908;2023-01-19T08:41:02;24.67;;;10.57;;
70707;SDS011;58277;47.316;18.908;2023-01-19T08:43:24;25.85;;;10.60;;
70707;SDS011;58277;47.316;18.908;2023-01-19T08:45:51;27.65;;;10.13;;
70707;SDS011;58277;47.316;18.908;2023-01-19T08:48:15;26.08;;;11.43;;
70707;SDS011;58277;47.316;18.908;2023-01-19T08:50:39;23.10;;;9.80;;
70707;SDS011;58277;47.316;18.908;2023-01-19T08:53:02;23.60;;;9.95;;
70707;SDS011;58277;47.316;18.908;2023-01-19T08:55:28;26.05;;;10.55;;
70707;SDS011;58277;47.316;18.908;2023-01-19T08:57:52;30.33;;;11.63;;
70707;SDS011;58277;47.316;18.908;2023-01-19T09:00:16;24.33;;;10.98;;
70707;SDS011;58277;47.316;18.908;2023-01-19T09:02:39;25.73;;;10.73;;
70707;SDS011;58277;47.316;18.908;2023-01-19T09:05:02;28.13;;;11.98;;
70707;SDS011;58277;47.316;18.908;2023-01-19T09:07:27;28.75;;;11.88;;
70707;SDS011;58277;47.316;18.908;2023-01-19T09:09:54;24.02;;;10.32;;
70707;SDS011;58277;47.316;18.908;2023-01-19T09:12:17;23.38;;;10.80;;
70707;SDS011;58277;47.316;18.908;2023-01-19T09:14:44;24.83;;;11.27;;
70707;SDS011;58277;47.316;18.908;2023-01-19T09:17:07;22.98;;;10.13;;
70707;SDS011;58277;47.316;18.908;2023-01-19T09:19:31;24.98;;;10.80;;
70707;SDS011;58277;47.316;18.908;2023-01-19T09:21:56;25.95;;;10.93;;
70707;SDS011;58277;47.316;18.908;2023-01-19T09:24:23;23.70;;;10.30;;
70707;SDS011;58277;47.316;18.908;2023-01-19T09:26:55;23.37;;;10.27;;
70707;SDS011;58277;47.316;18.908;2023-01-19T09:29:18;25.23;;;10.50;;
70707;SDS011;58277;47.316;18.908;2023-01-19T09:31:41;24.75;;;10.65;;
70707;SDS011;58277;47.316;18.908;2023-01-19T09:34:05;25.27;;;10.23;;
70707;SDS011;58277;47.316;18.908;2023-01-19T09:36:28;25.55;;;10.70;;
70707;SDS011;58277;47.316;18.908;2023-01-19T09:38:51;24.93;;;11.40;;
70707;SDS011;58277;47.316;18.908;2023-01-19T09:41:23;24.75;;;10.43;;
70707;SDS011;58277;47.316;18.908;2023-01-19T09:43:53;22.52;;;10.27;;
70707;SDS011;58277;47.316;18.908;2023-01-19T09:46:24;24.48;;;10.73;;
70707;SDS011;58277;47.316;18.908;2023-01-19T09:49:01;26.33;;;11.93;;
70707;SDS011;58277;47.316;18.908;2023-01-19T09:51:30;27.47;;;11.30;;
70707;SDS011;58277;47.316;18.908;2023-01-19T09:56:22;25.38;;;11.35;;
70707;SDS011;58277;47.316;18.908;2023-01-19T09:58:46;33.22;;;13.65;;
70707;SDS011;58277;47.316;18.908;2023-01-19T10:03:36;26.70;;;11.87;;
70707;SDS011;58277;47.316;18.908;2023-01-19T10:06:03;29.27;;;12.45;;
70707;SDS011;58277;47.316;18.908;2023-01-19T10:11:31;29.92;;;12.35;;
70707;SDS011;58277;47.316;18.908;2023-01-19T10:14:25;32.30;;;13.35;;
70707;SDS011;58277;47.316;18.908;2023-01-19T10:16:59;28.50;;;12.07;;
70707;SDS011;58277;47.316;18.908;2023-01-19T10:19:39;27.95;;;12.15;;
70707;SDS011;58277;47.316;18.908;2023-01-19T10:22:26;26.50;;;12.68;;
70707;SDS011;58277;47.316;18.908;2023-01-19T10:24:54;28.48;;;12.00;;
70707;SDS011;58277;47.316;18.908;2023-01-19T10:27:22;28.30;;;12.50;;
70707;SDS011;58277;47.316;18.908;2023-01-19T10:29:49;29.40;;;12.10;;
70707;SDS011;58277;47.316;18.908;2023-01-19T10:32:13;27.30;;;12.10;;
70707;SDS011;58277;47.316;18.908;2023-01-19T10:34:45;31.95;;;13.43;;
70707;SDS011;58277;47.316;18.908;2023-01-19T10:39:51;29.60;;;13.27;;
70707;SDS011;58277;47.316;18.908;2023-01-19T10:42:16;30.43;;;13.47;;
70707;SDS011;58277;47.316;18.908;2023-01-19T10:44:39;29.90;;;12.63;;
70707;SDS011;58277;47.316;18.908;2023-01-19T10:47:03;29.17;;;12.50;;
70707;SDS011;58277;47.316;18.908;2023-01-19T10:49:39;29.10;;;12.18;;
70707;SDS011;58277;47.316;18.908;2023-01-19T10:52:06;29.50;;;13.20;;
70707;SDS011;58277;47.316;18.908;2023-01-19T10:54:41;26.40;;;12.23;;
70707;SDS011;58277;47.316;18.908;2023-01-19T10:57:06;30.02;;;12.65;;
70707;SDS011;58277;47.316;18.908;2023-01-19T10:59:32;30.65;;;12.50;;
70707;SDS011;58277;47.316;18.908;2023-01-19T11:02:15;29.63;;;13.07;;
70707;SDS011;58277;47.316;18.908;2023-01-19T11:04:39;30.45;;;12.98;;
70707;SDS011;58277;47.316;18.908;2023-01-19T11:07:22;29.63;;;12.40;;
70707;SDS011;58277;47.316;18.908;2023-01-19T11:09:48;29.55;;;12.68;;
70707;SDS011;58277;47.316;18.908;2023-01-19T11:12:19;29.42;;;12.45;;
70707;SDS011;58277;47.316;18.908;2023-01-19T11:14:44;33.38;;;13.30;;
70707;SDS011;58277;47.316;18.908;2023-01-19T11:17:15;30.98;;;12.93;;
70707;SDS011;58277;47.316;18.908;2023-01-19T11:19:41;28.33;;;12.33;;
70707;SDS011;58277;47.316;18.908;2023-01-19T11:22:14;28.08;;;11.48;;
70707;SDS011;58277;47.316;18.908;2023-01-19T11:24:43;32.17;;;13.27;;
70707;SDS011;58277;47.316;18.908;2023-01-19T11:27:05;30.77;;;12.68;;
70707;SDS011;58277;47.316;18.908;2023-01-19T11:29:29;28.73;;;12.02;;
70707;SDS011;58277;47.316;18.908;2023-01-19T11:31:53;28.73;;;12.00;;
70707;SDS011;58277;47.316;18.908;2023-01-19T11:37:29;31.45;;;12.88;;
70707;SDS011;58277;47.316;18.908;2023-01-19T11:39:49;29.80;;;13.07;;
70707;SDS011;58277;47.316;18.908;2023-01-19T11:42:17;27.02;;;12.20;;
70707;SDS011;58277;47.316;18.908;2023-01-19T11:44:53;30.63;;;12.50;;
70707;SDS011;58277;47.316;18.908;2023-01-19T11:47:27;29.75;;;11.75;;
70707;SDS011;58277;47.316;18.908;2023-01-19T11:49:58;30.77;;;12.32;;
70707;SDS011;58277;47.316;18.908;2023-01-19T11:57:29;28.27;;;11.93;;
70707;SDS011;58277;47.316;18.908;2023-01-19T11:59:52;29.05;;;12.88;;
70707;SDS011;58277;47.316;18.908;2023-01-19T12:02:19;29.27;;;11.93;;
70707;SDS011;58277;47.316;18.908;2023-01-19T12:04:49;26.20;;;11.05;;
70707;SDS011;58277;47.316;18.908;2023-01-19T12:07:18;25.85;;;11.77;;
70707;SDS011;58277;47.316;18.908;2023-01-19T12:09:51;25.23;;;11.07;;
70707;SDS011;58277;47.316;18.908;2023-01-19T12:12:27;26.65;;;10.48;;
70707;SDS011;58277;47.316;18.908;2023-01-19T12:17:34;24.65;;;10.98;;
70707;SDS011;58277;47.316;18.908;2023-01-19T12:22:43;27.57;;;11.67;;
70707;SDS011;58277;47.316;18.908;2023-01-19T12:25:23;29.67;;;11.25;;
70707;SDS011;58277;47.316;18.908;2023-01-19T12:28:05;25.13;;;10.30;;
70707;SDS011;58277;47.316;18.908;2023-01-19T12:30:34;27.25;;;11.10;;
70707;SDS011;58277;47.316;18.908;2023-01-19T12:35:57;25.07;;;10.20;;
70707;SDS011;58277;47.316;18.908;2023-01-19T12:46:38;27.17;;;11.10;;
70707;SDS011;58277;47.316;18.908;2023-01-19T12:51:33;25.77;;;11.35;;
70707;SDS011;58277;47.316;18.908;2023-01-19T12:53:56;28.30;;;11.80;;
70707;SDS011;58277;47.316;18.908;2023-01-19T12:56:26;27.92;;;11.55;;
70707;SDS011;58277;47.316;18.908;2023-01-19T12:58:52;28.92;;;11.40;;
70707;SDS011;58277;47.316;18.908;2023-01-19T13:01:17;26.27;;;10.87;;
70707;SDS011;58277;47.316;18.908;2023-01-19T13:06:07;25.35;;;10.43;;
70707;SDS011;58277;47.316;18.908;2023-01-19T13:11:19;27.52;;;10.70;;
70707;SDS011;58277;47.316;18.908;2023-01-19T13:18:40;23.42;;;9.80;;
70707;SDS011;58277;47.316;18.908;2023-01-19T13:21:05;25.50;;;9.75;;
70707;SDS011;58277;47.316;18.908;2023-01-19T13:26:14;25.60;;;9.80;;
70707;SDS011;58277;47.316;18.908;2023-01-19T13:28:51;22.95;;;8.98;;
70707;SDS011;58277;47.316;18.908;2023-01-19T13:31:16;23.17;;;9.18;;
70707;SDS011;58277;47.316;18.908;2023-01-19T13:33:47;26.05;;;10.20;;
70707;SDS011;58277;47.316;18.908;2023-01-19T13:36:29;25.05;;;10.07;;
70707;SDS011;58277;47.316;18.908;2023-01-19T13:38:55;25.20;;;9.77;;
70707;SDS011;58277;47.316;18.908;2023-01-19T13:41:23;23.40;;;8.80;;
70707;SDS011;58277;47.316;18.908;2023-01-19T13:43:49;20.52;;;8.57;;
70707;SDS011;58277;47.316;18.908;2023-01-19T13:46:40;22.15;;;9.30;;
70707;SDS011;58277;47.316;18.908;2023-01-19T13:49:04;20.85;;;8.27;;
70707;SDS011;58277;47.316;18.908;2023-01-19T13:52:13;20.23;;;8.70;;
70707;SDS011;58277;47.316;18.908;2023-01-19T14:00:00;22.15;;;9.00;;
70707;SDS011;58277;47.316;18.908;2023-01-19T14:02:32;18.38;;;8.10;;
70707;SDS011;58277;47.316;18.908;2023-01-19T14:04:55;18.37;;;7.80;;
70707;SDS011;58277;47.316;18.908;2023-01-19T14:07:19;19.27;;;7.40;;
70707;SDS011;58277;47.316;18.908;2023-01-19T14:09:59;20.95;;;8.70;;
70707;SDS011;58277;47.316;18.908;2023-01-19T14:12:27;18.10;;;7.30;;
70707;SDS011;58277;47.316;18.908;2023-01-19T14:15:22;19.15;;;8.18;;
70707;SDS011;58277;47.316;18.908;2023-01-19T14:17:45;18.92;;;8.00;;
70707;SDS011;58277;47.316;18.908;2023-01-19T14:20:33;16.90;;;7.50;;
70707;SDS011;58277;47.316;18.908;2023-01-19T14:22:58;20.23;;;8.27;;
70707;SDS011;58277;47.316;18.908;2023-01-19T14:25:31;15.55;;;7.00;;
70707;SDS011;58277;47.316;18.908;2023-01-19T14:33:42;17.10;;;6.57;;
70707;SDS011;58277;47.316;18.908;2023-01-19T14:36:54;17.63;;;7.45;;
70707;SDS011;58277;47.316;18.908;2023-01-19T14:39:00;17.70;;;7.72;;
70707;SDS011;58277;47.316;18.908;2023-01-19T14:44:01;18.42;;;7.55;;
70707;SDS011;58277;47.316;18.908;2023-01-19T14:46:30;17.50;;;7.67;;
70707;SDS011;58277;47.316;18.908;2023-01-19T14:48:55;19.70;;;8.02;;
70707;SDS011;58277;47.316;18.908;2023-01-19T14:51:23;19.85;;;8.32;;
70707;SDS011;58277;47.316;18.908;2023-01-19T14:53:50;18.83;;;7.47;;
70707;SDS011;58277;47.316;18.908;2023-01-19T14:56:26;20.38;;;8.32;;
70707;SDS011;58277;47.316;18.908;2023-01-19T14:58:51;21.17;;;8.07;;
70707;SDS011;58277;47.316;18.908;2023-01-19T15:01:14;20.15;;;8.23;;
70707;SDS011;58277;47.316;18.908;2023-01-19T15:03:37;19.88;;;8.20;;
70707;SDS011;58277;47.316;18.908;2023-01-19T15:06:08;20.27;;;7.75;;
70707;SDS011;58277;47.316;18.908;2023-01-19T15:08:34;20.65;;;8.10;;
70707;SDS011;58277;47.316;18.908;2023-01-19T15:11:01;18.97;;;8.13;;
70707;SDS011;58277;47.316;18.908;2023-01-19T15:13:30;22.63;;;8.60;;
70707;SDS011;58277;47.316;18.908;2023-01-19T15:15:52;22.05;;;8.68;;
70707;SDS011;58277;47.316;18.908;2023-01-19T15:18:16;21.20;;;8.63;;
70707;SDS011;58277;47.316;18.908;2023-01-19T15:20:45;21.67;;;9.18;;
70707;SDS011;58277;47.316;18.908;2023-01-19T15:23:10;24.03;;;9.30;;
70707;SDS011;58277;47.316;18.908;2023-01-19T15:25:34;23.92;;;9.25;;
70707;SDS011;58277;47.316;18.908;2023-01-19T15:27:57;29.42;;;10.68;;